createdAt,value
2023-09-11T00:01:27.615Z,21.22
2023-09-11T00:03:55.285Z,20.86
2023-09-11T00:06:23.007Z,21.00
2023-09-11T00:08:52.045Z,20.97
2023-09-11T00:11:20.262Z,21.00
2023-09-11T00:13:47.911Z,20.91
2023-09-11T00:16:15.607Z,21.01
2023-09-11T00:18:43.540Z,21.08
2023-09-11T00:21:11.534Z,21.00
2023-09-11T00:23:39.201Z,21.15
2023-09-11T00:26:08.377Z,21.52
2023-09-11T00:28:36.042Z,21.33
2023-09-11T00:31:03.763Z,21.55
2023-09-11T00:33:31.437Z,21.56
2023-09-11T00:35:59.126Z,21.64
2023-09-11T00:38:26.890Z,21.69
2023-09-11T00:40:54.565Z,21.35
2023-09-11T00:43:23.626Z,21.49
2023-09-11T00:45:52.186Z,21.80
2023-09-11T00:48:20.718Z,21.92
2023-09-11T00:50:49.545Z,21.89
2023-09-11T00:53:17.760Z,21.56
2023-09-11T00:55:46.762Z,21.90
2023-09-11T01:00:46.814Z,22.04
2023-09-11T01:03:15.510Z,21.91
2023-09-11T01:05:44.817Z,21.86
2023-09-11T01:08:12.663Z,21.90
2023-09-11T01:10:40.310Z,21.75
2023-09-11T01:13:07.994Z,21.69
2023-09-11T01:15:43.772Z,20.93
2023-09-11T01:18:30.230Z,20.84
2023-09-11T01:21:39.222Z,20.98
2023-09-11T01:24:33.334Z,20.70
2023-09-11T01:27:41.132Z,20.85
2023-09-11T01:30:11.541Z,20.58
2023-09-11T01:32:40.098Z,20.89
2023-09-11T01:35:08.378Z,21.09
2023-09-11T01:37:36.047Z,21.38
2023-09-11T01:40:03.919Z,21.84
2023-09-11T01:42:36.611Z,21.95
2023-09-11T01:45:07.133Z,21.92
2023-09-11T01:47:36.439Z,21.99
2023-09-11T01:50:06.953Z,21.98
2023-09-11T01:52:35.883Z,21.77
2023-09-11T01:55:04.399Z,21.82
2023-09-11T01:57:32.111Z,21.79
2023-09-11T01:59:59.761Z,21.79
2023-09-11T02:02:31.020Z,21.64
2023-09-11T02:05:00.135Z,21.52
2023-09-11T02:07:27.780Z,21.49
2023-09-11T02:09:55.488Z,21.58
2023-09-11T02:12:24.134Z,21.42
2023-09-11T02:14:51.838Z,21.39
2023-09-11T02:17:19.532Z,21.59
2023-09-11T02:19:47.196Z,21.46
2023-09-11T02:22:17.182Z,21.42
2023-09-11T02:24:44.843Z,21.32
2023-09-11T02:27:12.496Z,21.24
2023-09-11T02:29:40.190Z,21.16
2023-09-11T02:32:07.962Z,21.29
2023-09-11T02:34:35.574Z,21.31
2023-09-11T02:37:03.249Z,21.21
2023-09-11T02:39:32.231Z,21.31
2023-09-11T02:42:00.282Z,21.15
2023-09-11T02:44:27.993Z,21.16
2023-09-11T02:46:55.655Z,21.24
2023-09-11T02:49:23.294Z,21.32
2023-09-11T02:51:51.011Z,21.24
2023-09-11T02:54:20.513Z,21.17
2023-09-11T02:56:49.546Z,20.99
2023-09-11T02:59:17.190Z,20.92
2023-09-11T03:01:45.903Z,20.87
2023-09-11T03:04:13.546Z,20.93
2023-09-11T03:06:41.192Z,20.71
2023-09-11T03:09:08.882Z,20.87
2023-09-11T03:11:36.625Z,20.90
2023-09-11T03:14:05.784Z,20.97
2023-09-11T03:16:33.451Z,20.82
2023-09-11T03:19:01.098Z,20.56
2023-09-11T03:21:28.711Z,20.61
2023-09-11T03:23:56.408Z,20.72
2023-09-11T03:26:24.164Z,20.72
2023-09-11T03:28:51.848Z,20.67
2023-09-11T03:31:20.850Z,20.60
2023-09-11T03:33:48.673Z,20.72
2023-09-11T03:36:17.420Z,20.71
2023-09-11T03:38:45.593Z,20.71
2023-09-11T03:41:13.409Z,20.73
2023-09-11T03:43:41.056Z,20.75
2023-09-11T03:46:08.913Z,20.75
2023-09-11T03:48:38.269Z,20.75
2023-09-11T03:51:06.063Z,20.68
2023-09-11T03:53:35.061Z,20.62
2023-09-11T03:56:03.366Z,20.78
2023-09-11T03:58:31.372Z,20.77
2023-09-11T04:00:59.040Z,20.60
2023-09-11T04:03:26.826Z,19.96
2023-09-11T04:05:56.087Z,20.03
2023-09-11T04:08:23.836Z,20.25
2023-09-11T04:10:51.549Z,20.29
2023-09-11T04:13:19.196Z,20.04
2023-09-11T04:15:46.879Z,20.17
2023-09-11T04:18:14.597Z,20.31
2023-09-11T04:20:42.306Z,20.05
2023-09-11T04:23:11.322Z,20.06
2023-09-11T04:25:39.063Z,19.90
2023-09-11T04:28:07.244Z,19.66
2023-09-11T04:30:34.958Z,19.74
2023-09-11T04:33:04.086Z,19.84
2023-09-11T04:35:32.155Z,19.93
2023-09-11T04:37:59.841Z,19.55
2023-09-11T04:40:28.898Z,19.41
2023-09-11T04:42:57.498Z,19.33
2023-09-11T04:45:25.141Z,19.64
2023-09-11T04:47:52.809Z,19.82
2023-09-11T04:50:20.706Z,19.68
2023-09-11T04:52:48.368Z,19.48
2023-09-11T04:55:16.016Z,19.69
2023-09-11T04:57:45.015Z,19.83
2023-09-11T05:00:14.592Z,19.62
2023-09-11T05:02:42.506Z,18.57
2023-09-11T05:05:10.501Z,18.13
2023-09-11T05:07:38.132Z,18.65
2023-09-11T05:10:09.185Z,18.85
2023-09-11T05:12:36.878Z,19.30
2023-09-11T05:15:06.620Z,19.51
2023-09-11T05:17:34.408Z,19.68
2023-09-11T05:20:02.081Z,19.42
2023-09-11T05:22:29.687Z,19.56
2023-09-11T05:24:57.319Z,19.80
2023-09-11T05:27:24.943Z,20.08
2023-09-11T05:29:53.223Z,19.83
2023-09-11T05:32:24.349Z,19.46
2023-09-11T05:34:52.061Z,19.68
2023-09-11T05:37:19.730Z,20.17
2023-09-11T05:39:48.620Z,20.46
2023-09-11T05:42:16.268Z,20.37
2023-09-11T05:44:44.787Z,20.22
2023-09-11T05:47:12.568Z,20.30
2023-09-11T05:49:41.571Z,19.53
2023-09-11T05:52:09.286Z,20.46
2023-09-11T05:54:36.899Z,21.04
2023-09-11T05:57:05.216Z,20.89
2023-09-11T05:59:32.935Z,20.93
2023-09-11T06:02:00.711Z,21.39
2023-09-11T06:04:28.848Z,21.58
2023-09-11T06:06:57.871Z,21.93
2023-09-11T06:09:25.689Z,22.95
2023-09-11T06:11:53.874Z,24.32
2023-09-11T06:14:21.543Z,25.38
2023-09-11T06:16:49.235Z,26.35
2023-09-11T06:19:16.974Z,26.83
2023-09-11T06:21:45.450Z,27.14
2023-09-11T06:24:15.422Z,27.47
2023-09-11T06:26:44.463Z,27.91
2023-09-11T06:29:13.246Z,28.75
2023-09-11T06:31:41.040Z,28.29
2023-09-11T06:34:08.698Z,28.91
2023-09-11T06:36:36.339Z,29.35
2023-09-11T06:39:05.823Z,30.34
2023-09-11T06:41:34.882Z,31.25
2023-09-11T06:44:03.536Z,31.02
2023-09-11T06:46:31.176Z,31.26
2023-09-11T06:48:59.622Z,31.97
2023-09-11T06:51:27.327Z,32.26
2023-09-11T06:53:56.493Z,32.92
2023-09-11T06:56:24.239Z,33.45
2023-09-11T06:58:53.233Z,33.92
2023-09-11T07:01:20.887Z,32.24
2023-09-11T07:03:48.996Z,29.09
2023-09-11T07:06:16.797Z,30.74
2023-09-11T07:08:44.703Z,29.17
2023-09-11T07:11:12.496Z,29.04
2023-09-11T07:13:40.132Z,30.61
2023-09-11T07:16:09.191Z,32.80
2023-09-11T07:18:37.012Z,34.35
2023-09-11T07:21:04.956Z,34.44
2023-09-11T07:23:32.732Z,33.76
2023-09-11T07:26:00.514Z,32.14
2023-09-11T07:28:28.723Z,31.27
2023-09-11T07:30:56.585Z,30.08
2023-09-11T07:33:25.882Z,30.08
2023-09-11T07:35:53.722Z,30.73
2023-09-11T07:38:21.376Z,32.59
2023-09-11T07:40:49.003Z,34.38
2023-09-11T07:43:16.640Z,35.23
2023-09-11T07:45:44.432Z,36.20
2023-09-11T07:48:12.175Z,36.44
2023-09-11T07:50:41.343Z,36.73
2023-09-11T07:53:09.015Z,37.75
2023-09-11T07:55:38.173Z,37.99
2023-09-11T07:58:06.239Z,38.23
2023-09-11T08:00:33.986Z,38.37
2023-09-11T08:03:01.923Z,38.98
2023-09-11T08:05:29.708Z,38.67
2023-09-11T08:08:02.561Z,38.40
2023-09-11T08:10:30.477Z,38.55
2023-09-11T08:12:58.233Z,38.52
2023-09-11T08:15:26.366Z,39.32
2023-09-11T08:17:54.183Z,39.75
2023-09-11T08:20:21.863Z,39.54
2023-09-11T08:22:49.518Z,34.77
2023-09-11T08:25:18.767Z,37.60
2023-09-11T08:27:46.595Z,37.71
2023-09-11T08:30:14.840Z,36.59
2023-09-11T08:32:42.608Z,38.40
2023-09-11T08:35:10.331Z,37.34
2023-09-11T08:37:38.041Z,36.18
2023-09-11T08:40:06.942Z,38.46
2023-09-11T08:42:36.139Z,39.17
2023-09-11T08:45:03.867Z,39.50
2023-09-11T08:47:32.699Z,37.58
2023-09-11T08:50:06.762Z,37.52
2023-09-11T08:52:36.245Z,38.65
2023-09-11T08:55:09.459Z,37.11
2023-09-11T08:57:41.315Z,37.16
2023-09-11T09:00:13.624Z,36.64
2023-09-11T09:02:41.892Z,37.89
2023-09-11T09:05:10.441Z,37.29
2023-09-11T09:07:40.174Z,32.59
2023-09-11T09:10:09.551Z,36.25
2023-09-11T09:12:39.212Z,36.23
2023-09-11T09:15:08.707Z,35.89
2023-09-11T09:17:36.451Z,34.67
2023-09-11T09:20:05.422Z,33.72
2023-09-11T09:22:33.088Z,31.98
2023-09-11T09:25:00.798Z,31.51
2023-09-11T09:27:29.519Z,31.76
2023-09-11T09:29:58.694Z,31.41
2023-09-11T09:32:26.977Z,31.30
2023-09-11T09:34:56.289Z,31.90
2023-09-11T09:37:24.029Z,30.03
2023-09-11T09:39:52.015Z,31.07
2023-09-11T09:42:20.129Z,30.93
2023-09-11T09:44:53.706Z,30.48
2023-09-11T09:47:24.215Z,29.09
2023-09-11T09:49:53.724Z,29.05
2023-09-11T09:52:22.740Z,29.47
2023-09-11T09:54:51.953Z,30.92
2023-09-11T09:57:21.294Z,31.35
2023-09-11T09:59:51.145Z,31.17
2023-09-11T10:02:27.587Z,30.45
2023-09-11T10:04:57.962Z,30.77
2023-09-11T10:07:44.114Z,31.47
2023-09-11T10:10:22.968Z,30.27
2023-09-11T10:12:55.295Z,29.26
2023-09-11T10:15:23.823Z,29.89
2023-09-11T10:17:56.708Z,30.73
2023-09-11T10:20:25.126Z,31.37
2023-09-11T10:22:55.273Z,31.68
2023-09-11T10:25:23.936Z,32.38
2023-09-11T10:27:54.910Z,32.48
2023-09-11T10:30:26.699Z,32.15
2023-09-11T10:33:00.558Z,32.63
2023-09-11T10:35:31.478Z,32.66
2023-09-11T10:38:00.531Z,32.94
2023-09-11T10:40:31.377Z,32.86
2023-09-11T10:42:59.270Z,32.03
2023-09-11T10:45:27.762Z,32.40
2023-09-11T10:47:57.017Z,33.08
2023-09-11T10:50:31.800Z,32.75
2023-09-11T10:52:59.755Z,32.91
2023-09-11T10:55:27.629Z,33.24
2023-09-11T10:57:58.815Z,33.12
2023-09-11T11:00:27.661Z,32.95
2023-09-11T11:02:57.902Z,33.40
2023-09-11T11:05:28.098Z,32.92
2023-09-11T11:07:55.807Z,33.23
2023-09-11T11:10:23.671Z,33.07
2023-09-11T11:13:06.108Z,32.54
2023-09-11T11:15:33.948Z,32.70
2023-09-11T11:18:11.304Z,32.73
2023-09-11T11:20:50.226Z,32.02
2023-09-11T11:23:17.927Z,33.14
2023-09-11T11:25:49.319Z,32.74
2023-09-11T11:28:18.156Z,33.56
2023-09-11T11:30:46.570Z,33.34
2023-09-11T11:33:17.450Z,33.29
2023-09-11T11:35:48.487Z,32.22
2023-09-11T11:38:17.910Z,32.61
2023-09-11T11:40:46.443Z,33.14
2023-09-11T11:43:15.561Z,33.15
2023-09-11T11:45:45.887Z,33.47
2023-09-11T11:48:13.631Z,33.95
2023-09-11T11:50:44.709Z,33.59
2023-09-11T11:53:16.632Z,33.17
2023-09-11T11:55:45.312Z,33.20
2023-09-11T11:58:14.138Z,33.18
2023-09-11T12:00:42.056Z,32.58
2023-09-11T12:03:10.467Z,33.18
2023-09-11T12:05:38.767Z,33.37
2023-09-11T12:08:12.980Z,33.54
2023-09-11T12:10:45.444Z,33.60
2023-09-11T12:13:14.147Z,33.63
2023-09-11T12:15:41.842Z,33.51
2023-09-11T12:18:09.976Z,33.96
2023-09-11T12:20:37.934Z,33.79
2023-09-11T12:23:06.917Z,33.03
2023-09-11T12:25:34.695Z,33.74
2023-09-11T12:28:02.436Z,34.16
2023-09-11T12:30:30.143Z,33.83
2023-09-11T12:32:59.711Z,33.97
2023-09-11T12:35:33.466Z,34.13
2023-09-11T12:38:01.200Z,34.00
2023-09-11T12:40:30.431Z,33.40
2023-09-11T12:42:58.119Z,33.77
2023-09-11T12:45:25.892Z,34.06
2023-09-11T12:47:53.702Z,33.95
2023-09-11T12:50:22.191Z,34.03
2023-09-11T12:52:50.502Z,33.81
2023-09-11T12:55:18.203Z,34.03
2023-09-11T12:57:47.202Z,34.17
2023-09-11T13:00:15.662Z,34.42
2023-09-11T13:02:44.370Z,33.87
2023-09-11T13:05:12.367Z,34.25
2023-09-11T13:07:40.217Z,33.78
2023-09-11T13:10:09.022Z,34.12
2023-09-11T13:12:36.699Z,34.57
2023-09-11T13:15:07.232Z,33.64
2023-09-11T13:17:35.070Z,33.55
2023-09-11T13:20:04.066Z,33.58
2023-09-11T13:22:32.254Z,33.70
2023-09-11T13:24:59.954Z,34.08
2023-09-11T13:27:28.027Z,34.09
2023-09-11T13:29:55.744Z,34.35
2023-09-11T13:32:24.858Z,34.48
2023-09-11T13:34:52.554Z,33.82
2023-09-11T13:37:20.233Z,34.62
2023-09-11T13:39:47.894Z,34.68
2023-09-11T13:42:15.580Z,34.48
2023-09-11T13:44:43.260Z,34.79
2023-09-11T13:47:10.938Z,34.43
2023-09-11T13:49:39.916Z,34.70
2023-09-11T13:52:08.337Z,34.62
2023-09-11T13:54:35.984Z,34.20
2023-09-11T13:57:03.668Z,34.59
2023-09-11T13:59:31.377Z,34.26
2023-09-11T14:01:59.065Z,34.38
2023-09-11T14:04:26.832Z,34.60
2023-09-11T14:06:55.940Z,34.64
2023-09-11T14:09:23.684Z,34.76
2023-09-11T14:11:51.425Z,34.77
2023-09-11T14:14:19.117Z,34.93
2023-09-11T14:16:46.777Z,34.67
2023-09-11T14:19:14.447Z,35.11
2023-09-11T14:21:42.128Z,34.96
2023-09-11T14:24:11.219Z,35.09
2023-09-11T14:26:38.906Z,34.62
2023-09-11T14:29:06.700Z,34.68
2023-09-11T14:31:34.464Z,34.89
2023-09-11T14:34:02.161Z,34.73
2023-09-11T14:36:29.790Z,34.74
2023-09-11T14:38:59.141Z,34.80
2023-09-11T14:41:28.371Z,35.00
2023-09-11T14:43:56.015Z,35.17
2023-09-11T14:46:23.704Z,34.66
2023-09-11T14:48:56.938Z,34.89
2023-09-11T14:51:25.030Z,34.77
2023-09-11T14:53:53.021Z,34.68
2023-09-11T14:56:20.705Z,34.86
2023-09-11T14:58:49.678Z,34.76
2023-09-11T15:01:17.413Z,34.70
2023-09-11T15:03:45.385Z,34.74
2023-09-11T15:06:13.308Z,34.60
2023-09-11T15:08:41.133Z,34.68
2023-09-11T15:11:09.318Z,34.57
2023-09-11T15:13:36.982Z,34.87
2023-09-11T15:16:06.261Z,34.78
2023-09-11T15:18:34.105Z,34.89
2023-09-11T15:21:01.900Z,34.65
2023-09-11T15:23:29.735Z,34.46
2023-09-11T15:25:57.380Z,34.28
2023-09-11T15:28:25.100Z,34.55
2023-09-11T15:30:53.399Z,34.23
2023-09-11T15:33:23.271Z,34.36
2023-09-11T15:36:02.570Z,34.50
2023-09-11T15:38:30.530Z,34.53
2023-09-11T15:41:03.972Z,34.48
2023-09-11T15:43:33.403Z,34.60
2023-09-11T15:46:01.540Z,34.76
2023-09-11T15:48:31.555Z,34.56
2023-09-11T15:50:59.565Z,34.75
2023-09-11T15:53:27.759Z,34.59
2023-09-11T15:55:55.869Z,34.62
2023-09-11T15:58:24.566Z,34.52
2023-09-11T16:00:52.934Z,34.16
2023-09-11T16:03:21.185Z,34.61
2023-09-11T16:05:50.759Z,34.40
2023-09-11T16:08:18.932Z,34.41
2023-09-11T16:10:47.352Z,34.02
2023-09-11T16:13:15.155Z,34.22
2023-09-11T16:15:43.236Z,34.23
2023-09-11T16:18:11.229Z,34.35
2023-09-11T16:20:39.161Z,34.09
2023-09-11T16:23:09.065Z,33.95
2023-09-11T16:25:39.632Z,34.20
2023-09-11T16:28:08.499Z,34.22
2023-09-11T16:30:36.316Z,33.73
2023-09-11T16:33:04.881Z,33.88
2023-09-11T16:35:33.096Z,34.01
2023-09-11T16:38:01.308Z,33.91
2023-09-11T16:40:30.410Z,33.77
2023-09-11T16:42:58.042Z,33.84
2023-09-11T16:45:25.717Z,33.87
2023-09-11T16:47:54.020Z,33.63
2023-09-11T16:50:21.716Z,33.62
2023-09-11T16:52:50.375Z,33.69
2023-09-11T16:55:18.023Z,33.72
2023-09-11T16:57:47.033Z,33.43
2023-09-11T17:00:16.248Z,33.36
2023-09-11T17:02:44.460Z,32.88
2023-09-11T17:05:12.279Z,32.86
2023-09-11T17:07:39.951Z,32.33
2023-09-11T17:10:08.602Z,31.82
2023-09-11T17:12:40.653Z,31.50
2023-09-11T17:15:11.148Z,31.38
2023-09-11T17:17:39.264Z,31.14
2023-09-11T17:20:07.723Z,30.87
2023-09-11T17:22:35.398Z,30.61
2023-09-11T17:25:03.751Z,30.61
2023-09-11T17:27:31.447Z,30.27
2023-09-11T17:29:59.114Z,30.46
2023-09-11T17:32:28.164Z,30.07
2023-09-11T17:34:55.803Z,30.03
2023-09-11T17:37:23.414Z,29.90
2023-09-11T17:39:52.760Z,29.98
2023-09-11T17:42:20.900Z,29.86
2023-09-11T17:44:48.615Z,29.75
2023-09-11T17:47:16.251Z,29.43
2023-09-11T17:49:45.407Z,29.49
2023-09-11T17:52:13.202Z,29.49
2023-09-11T17:54:40.888Z,29.46
2023-09-11T17:57:08.575Z,29.43
2023-09-11T17:59:36.483Z,29.38
2023-09-11T18:02:04.824Z,29.42
2023-09-11T18:04:33.847Z,29.34
2023-09-11T18:07:03.250Z,29.10
2023-09-11T18:09:30.897Z,29.13
2023-09-11T18:11:58.560Z,29.26
2023-09-11T18:14:26.299Z,29.10
2023-09-11T18:16:53.958Z,29.04
2023-09-11T18:19:21.590Z,28.79
2023-09-11T18:21:49.246Z,28.74
2023-09-11T18:24:18.294Z,28.85
2023-09-11T18:26:45.953Z,28.70
2023-09-11T18:29:14.874Z,28.42
2023-09-11T18:31:42.945Z,28.35
2023-09-11T18:34:11.592Z,28.03
2023-09-11T18:36:40.586Z,28.09
2023-09-11T18:39:08.270Z,28.22
2023-09-11T18:41:37.337Z,28.13
2023-09-11T18:44:05.625Z,28.15
2023-09-11T18:46:33.449Z,28.41
2023-09-11T18:49:01.916Z,28.42
2023-09-11T18:51:29.869Z,28.51
2023-09-11T18:53:59.726Z,28.20
2023-09-11T18:56:27.435Z,28.07
2023-09-11T18:58:56.408Z,28.32
2023-09-11T19:01:24.306Z,28.51
2023-09-11T19:03:52.920Z,28.56
2023-09-11T19:06:20.924Z,28.59
2023-09-11T19:08:48.642Z,28.69
2023-09-11T19:11:16.388Z,28.85
2023-09-11T19:13:44.045Z,28.05
2023-09-11T19:16:13.198Z,28.51
2023-09-11T19:18:41.092Z,28.85
2023-09-11T19:21:09.438Z,29.02
2023-09-11T19:23:37.404Z,28.79
2023-09-11T19:26:06.982Z,29.08
2023-09-11T19:28:35.073Z,29.07
2023-09-11T19:31:03.816Z,29.24
2023-09-11T19:33:33.966Z,29.35
2023-09-11T19:36:01.886Z,29.38
2023-09-11T19:38:29.583Z,29.17
2023-09-11T19:40:57.258Z,29.25
2023-09-11T19:43:24.932Z,29.20
2023-09-11T19:45:52.639Z,29.12
2023-09-11T19:48:21.390Z,29.11
2023-09-11T19:50:50.497Z,29.14
2023-09-11T19:53:18.118Z,29.02
2023-09-11T19:55:45.825Z,29.13
2023-09-11T19:58:13.483Z,29.14
2023-09-11T20:00:41.281Z,29.18
2023-09-11T20:03:09.053Z,29.08
2023-09-11T20:05:36.823Z,28.89
2023-09-11T20:08:06.253Z,28.60
2023-09-11T20:10:33.928Z,28.68
2023-09-11T20:13:01.561Z,28.83
2023-09-11T20:15:29.386Z,28.88
2023-09-11T20:17:57.104Z,28.67
2023-09-11T20:20:24.812Z,28.70
2023-09-11T20:22:52.501Z,28.68
2023-09-11T20:25:21.505Z,28.71
2023-09-11T20:27:49.192Z,28.24
2023-09-11T20:30:18.464Z,28.32
2023-09-11T20:32:46.242Z,28.31
2023-09-11T20:35:13.984Z,28.08
2023-09-11T20:37:41.680Z,28.23
2023-09-11T20:40:12.185Z,28.26
2023-09-11T20:42:42.423Z,28.41
2023-09-11T20:45:10.991Z,28.46
2023-09-11T20:47:38.725Z,28.48
2023-09-11T20:50:08.315Z,28.25
2023-09-11T20:52:36.401Z,28.12
2023-09-11T20:55:05.777Z,27.88
2023-09-11T20:57:34.019Z,28.02
2023-09-11T21:00:03.460Z,28.17
2023-09-11T21:02:33.312Z,27.94
2023-09-11T21:05:01.096Z,27.67
2023-09-11T21:07:28.783Z,27.86
2023-09-11T21:09:56.430Z,27.81
2023-09-11T21:12:27.041Z,27.79
2023-09-11T21:14:54.791Z,27.66
2023-09-11T21:17:23.870Z,27.66
2023-09-11T21:19:51.492Z,27.67
2023-09-11T21:22:19.157Z,27.66
2023-09-11T21:24:46.774Z,27.63
2023-09-11T21:27:14.470Z,27.52
2023-09-11T21:29:42.123Z,27.15
2023-09-11T21:32:09.739Z,27.36
2023-09-11T21:34:38.780Z,27.24
2023-09-11T21:37:06.447Z,27.37
2023-09-11T21:39:34.206Z,27.47
2023-09-11T21:42:02.977Z,27.55
2023-09-11T21:44:30.752Z,27.62
2023-09-11T21:46:58.453Z,27.36
2023-09-11T21:49:26.125Z,26.96
2023-09-11T21:51:55.093Z,27.21
2023-09-11T21:54:24.711Z,27.03
2023-09-11T21:56:54.090Z,27.23
2023-09-11T21:59:22.043Z,27.43
2023-09-11T22:01:49.703Z,27.43
2023-09-11T22:04:17.386Z,27.35
2023-09-11T22:06:45.088Z,27.22
2023-09-11T22:09:14.132Z,27.33
2023-09-11T22:11:42.654Z,27.30
2023-09-11T22:14:10.316Z,27.08
2023-09-11T22:16:38.006Z,27.28
2023-09-11T22:19:05.929Z,27.20
2023-09-11T22:21:33.658Z,27.28
2023-09-11T22:24:01.361Z,27.08
2023-09-11T22:26:30.370Z,27.12
2023-09-11T22:28:58.046Z,27.13
2023-09-11T22:31:25.765Z,27.11
2023-09-11T22:33:53.590Z,27.07
2023-09-11T22:36:21.422Z,26.50
2023-09-11T22:38:49.114Z,26.60
2023-09-11T22:41:16.770Z,26.68
2023-09-11T22:43:45.761Z,26.66
2023-09-11T22:46:13.437Z,26.62
2023-09-11T22:48:41.368Z,26.65
2023-09-11T22:51:09.290Z,26.49
2023-09-11T22:53:36.967Z,26.66
2023-09-11T22:56:05.036Z,26.51
2023-09-11T22:58:32.786Z,26.57
2023-09-11T23:01:07.349Z,26.67
2023-09-11T23:03:44.977Z,26.47
2023-09-11T23:06:14.477Z,26.44
2023-09-11T23:08:42.884Z,26.42
2023-09-11T23:11:10.819Z,26.31
2023-09-11T23:13:38.501Z,26.23
2023-09-11T23:16:07.665Z,26.32
2023-09-11T23:18:35.405Z,25.86
2023-09-11T23:21:03.143Z,26.13
2023-09-11T23:23:37.931Z,26.36
2023-09-11T23:26:07.989Z,26.15
2023-09-11T23:28:35.790Z,26.07
2023-09-11T23:31:04.337Z,26.08
2023-09-11T23:33:34.068Z,25.99
2023-09-11T23:36:01.843Z,26.13
2023-09-11T23:38:29.559Z,26.07
2023-09-11T23:40:57.202Z,25.92
2023-09-11T23:43:33.094Z,26.06
2023-09-11T23:46:01.344Z,26.05
2023-09-11T23:48:29.134Z,26.08
2023-09-11T23:50:58.622Z,26.23
2023-09-11T23:53:26.311Z,26.14
2023-09-11T23:55:54.069Z,25.92
2023-09-11T23:58:21.758Z,25.61
